sensor_id;sensor_type;location;lat;lon;timestamp;temperature;humidity
2391;DHT22;22957;50.824;4.360;2023-04-25T00:02:03;12.30;99.90
2391;DHT22;22957;50.824;4.360;2023-04-25T00:04:29;12.60;99.90
2391;DHT22;22957;50.824;4.360;2023-04-25T00:06:55;12.50;99.90
2391;DHT22;22957;50.824;4.360;2023-04-25T00:09:21;12.60;99.90
2391;DHT22;22957;50.824;4.360;2023-04-25T00:11:47;12.70;99.90
2391;DHT22;22957;50.824;4.360;2023-04-25T00:14:13;12.10;99.90
2391;DHT22;22957;50.824;4.360;2023-04-25T00:16:39;12.40;99.90
2391;DHT22;22957;50.824;4.360;2023-04-25T00:19:06;12.30;99.90
2391;DHT22;22957;50.824;4.360;2023-04-25T00:21:33;12.40;99.90
2391;DHT22;22957;50.824;4.360;2023-04-25T00:23:59;11.90;99.90
2391;DHT22;22957;50.824;4.360;2023-04-25T00:26:27;12.10;99.90
2391;DHT22;22957;50.824;4.360;2023-04-25T00:28:52;12.10;99.90
2391;DHT22;22957;50.824;4.360;2023-04-25T00:31:18;12.40;99.90
2391;DHT22;22957;50.824;4.360;2023-04-25T00:33:43;11.90;99.90
2391;DHT22;22957;50.824;4.360;2023-04-25T00:36:09;12.50;99.90
2391;DHT22;22957;50.824;4.360;2023-04-25T00:38:35;12.50;99.90
2391;DHT22;22957;50.824;4.360;2023-04-25T00:41:01;13.20;99.90
2391;DHT22;22957;50.824;4.360;2023-04-25T00:43:27;12.80;99.90
2391;DHT22;22957;50.824;4.360;2023-04-25T00:45:53;12.50;99.90
2391;DHT22;22957;50.824;4.360;2023-04-25T00:48:21;12.00;99.90
2391;DHT22;22957;50.824;4.360;2023-04-25T00:50:56;12.10;99.90
2391;DHT22;22957;50.824;4.360;2023-04-25T00:53:23;12.10;99.90
2391;DHT22;22957;50.824;4.360;2023-04-25T00:55:49;11.90;99.90
2391;DHT22;22957;50.824;4.360;2023-04-25T00:58:20;11.70;99.90
2391;DHT22;22957;50.824;4.360;2023-04-25T01:00:47;11.80;99.90
2391;DHT22;22957;50.824;4.360;2023-04-25T01:03:14;12.10;99.90
2391;DHT22;22957;50.824;4.360;2023-04-25T01:05:42;11.80;99.90
2391;DHT22;22957;50.824;4.360;2023-04-25T01:08:07;11.60;99.90
2391;DHT22;22957;50.824;4.360;2023-04-25T01:10:33;11.00;99.90
2391;DHT22;22957;50.824;4.360;2023-04-25T01:12:59;11.00;99.90
2391;DHT22;22957;50.824;4.360;2023-04-25T01:15:25;11.10;99.90
2391;DHT22;22957;50.824;4.360;2023-04-25T01:17:50;11.60;99.90
2391;DHT22;22957;50.824;4.360;2023-04-25T01:20:16;12.20;99.90
2391;DHT22;22957;50.824;4.360;2023-04-25T01:22:42;11.90;99.90
2391;DHT22;22957;50.824;4.360;2023-04-25T01:25:08;12.20;99.90
2391;DHT22;22957;50.824;4.360;2023-04-25T01:27:36;12.00;99.90
2391;DHT22;22957;50.824;4.360;2023-04-25T01:30:02;12.30;99.90
2391;DHT22;22957;50.824;4.360;2023-04-25T01:32:29;11.80;99.90
2391;DHT22;22957;50.824;4.360;2023-04-25T01:35:10;11.70;99.90
2391;DHT22;22957;50.824;4.360;2023-04-25T01:37:45;12.10;99.90
2391;DHT22;22957;50.824;4.360;2023-04-25T01:40:11;12.10;99.90
2391;DHT22;22957;50.824;4.360;2023-04-25T01:42:39;12.40;99.90
2391;DHT22;22957;50.824;4.360;2023-04-25T01:45:06;12.20;99.90
2391;DHT22;22957;50.824;4.360;2023-04-25T01:47:32;12.50;99.90
2391;DHT22;22957;50.824;4.360;2023-04-25T01:50:00;12.20;99.90
2391;DHT22;22957;50.824;4.360;2023-04-25T01:52:26;12.10;99.90
2391;DHT22;22957;50.824;4.360;2023-04-25T01:54:52;11.60;99.90
2391;DHT22;22957;50.824;4.360;2023-04-25T01:57:18;11.30;99.90
2391;DHT22;22957;50.824;4.360;2023-04-25T01:59:44;10.90;99.90
2391;DHT22;22957;50.824;4.360;2023-04-25T02:02:10;11.20;99.90
2391;DHT22;22957;50.824;4.360;2023-04-25T02:04:36;11.40;99.90
2391;DHT22;22957;50.824;4.360;2023-04-25T02:07:02;11.60;99.90
2391;DHT22;22957;50.824;4.360;2023-04-25T02:09:28;11.50;99.90
2391;DHT22;22957;50.824;4.360;2023-04-25T02:11:54;11.30;99.90
2391;DHT22;22957;50.824;4.360;2023-04-25T02:14:19;11.40;99.90
2391;DHT22;22957;50.824;4.360;2023-04-25T02:16:45;11.90;99.90
2391;DHT22;22957;50.824;4.360;2023-04-25T02:19:11;12.00;99.90
2391;DHT22;22957;50.824;4.360;2023-04-25T02:21:37;10.90;99.90
2391;DHT22;22957;50.824;4.360;2023-04-25T02:24:03;10.30;99.90
2391;DHT22;22957;50.824;4.360;2023-04-25T02:26:29;10.60;99.90
2391;DHT22;22957;50.824;4.360;2023-04-25T02:28:56;11.20;99.90
2391;DHT22;22957;50.824;4.360;2023-04-25T02:31:22;11.60;99.90
2391;DHT22;22957;50.824;4.360;2023-04-25T02:33:48;11.70;99.90
2391;DHT22;22957;50.824;4.360;2023-04-25T02:36:14;11.60;99.90
2391;DHT22;22957;50.824;4.360;2023-04-25T02:38:40;11.10;99.90
2391;DHT22;22957;50.824;4.360;2023-04-25T02:41:06;11.70;99.90
2391;DHT22;22957;50.824;4.360;2023-04-25T02:43:31;12.00;99.90
2391;DHT22;22957;50.824;4.360;2023-04-25T02:45:57;11.60;99.90
2391;DHT22;22957;50.824;4.360;2023-04-25T02:48:23;11.80;99.90
2391;DHT22;22957;50.824;4.360;2023-04-25T02:50:48;10.90;99.90
2391;DHT22;22957;50.824;4.360;2023-04-25T02:53:14;10.30;99.90
2391;DHT22;22957;50.824;4.360;2023-04-25T02:55:39;10.70;99.90
2391;DHT22;22957;50.824;4.360;2023-04-25T02:58:05;11.50;99.90
2391;DHT22;22957;50.824;4.360;2023-04-25T03:00:31;12.00;99.90
2391;DHT22;22957;50.824;4.360;2023-04-25T03:02:56;11.70;99.90
2391;DHT22;22957;50.824;4.360;2023-04-25T03:05:22;11.50;99.90
2391;DHT22;22957;50.824;4.360;2023-04-25T03:07:47;12.10;99.90
2391;DHT22;22957;50.824;4.360;2023-04-25T03:10:13;12.20;99.90
2391;DHT22;22957;50.824;4.360;2023-04-25T03:12:39;11.70;99.90
2391;DHT22;22957;50.824;4.360;2023-04-25T03:15:05;11.50;99.90
2391;DHT22;22957;50.824;4.360;2023-04-25T03:17:31;11.70;99.90
2391;DHT22;22957;50.824;4.360;2023-04-25T03:19:57;12.00;99.90
2391;DHT22;22957;50.824;4.360;2023-04-25T03:22:23;11.70;99.90
2391;DHT22;22957;50.824;4.360;2023-04-25T03:24:50;12.10;99.90
2391;DHT22;22957;50.824;4.360;2023-04-25T03:27:16;12.00;99.90
2391;DHT22;22957;50.824;4.360;2023-04-25T03:29:41;12.50;99.90
2391;DHT22;22957;50.824;4.360;2023-04-25T03:32:07;12.00;99.90
2391;DHT22;22957;50.824;4.360;2023-04-25T03:34:33;11.50;99.90
2391;DHT22;22957;50.824;4.360;2023-04-25T03:36:58;11.60;99.90
2391;DHT22;22957;50.824;4.360;2023-04-25T03:39:24;11.60;99.90
2391;DHT22;22957;50.824;4.360;2023-04-25T03:41:50;11.60;99.90
2391;DHT22;22957;50.824;4.360;2023-04-25T03:44:15;12.00;99.90
2391;DHT22;22957;50.824;4.360;2023-04-25T03:46:41;11.70;99.90
2391;DHT22;22957;50.824;4.360;2023-04-25T03:49:06;11.60;99.90
2391;DHT22;22957;50.824;4.360;2023-04-25T03:51:32;11.40;99.90
2391;DHT22;22957;50.824;4.360;2023-04-25T03:53:58;12.30;99.90
2391;DHT22;22957;50.824;4.360;2023-04-25T03:56:23;11.80;99.90
2391;DHT22;22957;50.824;4.360;2023-04-25T03:58:49;11.90;99.90
2391;DHT22;22957;50.824;4.360;2023-04-25T04:01:14;11.60;99.90
2391;DHT22;22957;50.824;4.360;2023-04-25T04:03:40;11.00;99.90
2391;DHT22;22957;50.824;4.360;2023-04-25T04:06:07;10.90;99.90
2391;DHT22;22957;50.824;4.360;2023-04-25T04:08:33;10.80;99.90
2391;DHT22;22957;50.824;4.360;2023-04-25T04:10:58;11.30;99.90
2391;DHT22;22957;50.824;4.360;2023-04-25T04:13:28;11.70;99.90
2391;DHT22;22957;50.824;4.360;2023-04-25T04:15:55;11.10;99.90
2391;DHT22;22957;50.824;4.360;2023-04-25T04:18:21;11.60;99.90
2391;DHT22;22957;50.824;4.360;2023-04-25T04:20:47;10.40;99.90
2391;DHT22;22957;50.824;4.360;2023-04-25T04:23:13;10.60;99.90
2391;DHT22;22957;50.824;4.360;2023-04-25T04:25:39;11.30;99.90
2391;DHT22;22957;50.824;4.360;2023-04-25T04:28:05;10.80;99.90
2391;DHT22;22957;50.824;4.360;2023-04-25T04:30:31;10.70;99.90
2391;DHT22;22957;50.824;4.360;2023-04-25T04:32:59;10.60;99.90
2391;DHT22;22957;50.824;4.360;2023-04-25T04:35:26;10.30;99.90
2391;DHT22;22957;50.824;4.360;2023-04-25T04:37:52;10.60;99.90
2391;DHT22;22957;50.824;4.360;2023-04-25T04:40:18;10.70;99.90
2391;DHT22;22957;50.824;4.360;2023-04-25T04:42:44;10.80;99.90
2391;DHT22;22957;50.824;4.360;2023-04-25T04:45:12;11.50;99.90
2391;DHT22;22957;50.824;4.360;2023-04-25T04:47:38;11.10;99.90
2391;DHT22;22957;50.824;4.360;2023-04-25T04:50:06;10.80;99.90
2391;DHT22;22957;50.824;4.360;2023-04-25T04:52:34;10.90;99.90
2391;DHT22;22957;50.824;4.360;2023-04-25T04:55:00;10.60;99.90
2391;DHT22;22957;50.824;4.360;2023-04-25T04:57:26;10.70;99.90
2391;DHT22;22957;50.824;4.360;2023-04-25T04:59:51;10.70;99.90
2391;DHT22;22957;50.824;4.360;2023-04-25T05:02:17;11.30;99.90
2391;DHT22;22957;50.824;4.360;2023-04-25T05:04:43;11.70;99.90
2391;DHT22;22957;50.824;4.360;2023-04-25T05:07:08;12.00;99.90
2391;DHT22;22957;50.824;4.360;2023-04-25T05:09:34;12.10;99.90
2391;DHT22;22957;50.824;4.360;2023-04-25T05:12:00;11.00;99.90
2391;DHT22;22957;50.824;4.360;2023-04-25T05:14:26;10.30;99.90
2391;DHT22;22957;50.824;4.360;2023-04-25T05:16:52;10.60;99.90
2391;DHT22;22957;50.824;4.360;2023-04-25T05:19:17;10.50;99.90
2391;DHT22;22957;50.824;4.360;2023-04-25T05:21:43;11.00;99.90
2391;DHT22;22957;50.824;4.360;2023-04-25T05:24:09;10.70;99.90
2391;DHT22;22957;50.824;4.360;2023-04-25T05:26:34;11.00;99.90
2391;DHT22;22957;50.824;4.360;2023-04-25T05:29:00;10.20;99.90
2391;DHT22;22957;50.824;4.360;2023-04-25T05:31:26;10.00;99.90
2391;DHT22;22957;50.824;4.360;2023-04-25T05:33:52;10.00;99.90
2391;DHT22;22957;50.824;4.360;2023-04-25T05:36:19;11.30;99.90
2391;DHT22;22957;50.824;4.360;2023-04-25T05:38:45;10.40;99.90
2391;DHT22;22957;50.824;4.360;2023-04-25T05:41:10;10.80;99.90
2391;DHT22;22957;50.824;4.360;2023-04-25T05:43:36;10.50;99.90
2391;DHT22;22957;50.824;4.360;2023-04-25T05:46:01;10.20;99.90
2391;DHT22;22957;50.824;4.360;2023-04-25T05:48:27;9.60;99.90
2391;DHT22;22957;50.824;4.360;2023-04-25T05:50:53;8.80;99.90
2391;DHT22;22957;50.824;4.360;2023-04-25T05:53:20;8.60;99.90
2391;DHT22;22957;50.824;4.360;2023-04-25T05:55:46;8.90;99.90
2391;DHT22;22957;50.824;4.360;2023-04-25T05:58:12;9.10;99.90
2391;DHT22;22957;50.824;4.360;2023-04-25T06:00:37;9.80;99.90
2391;DHT22;22957;50.824;4.360;2023-04-25T06:03:03;10.50;99.90
2391;DHT22;22957;50.824;4.360;2023-04-25T06:05:29;10.10;99.90
2391;DHT22;22957;50.824;4.360;2023-04-25T06:07:55;10.30;99.90
2391;DHT22;22957;50.824;4.360;2023-04-25T06:10:21;9.30;99.90
2391;DHT22;22957;50.824;4.360;2023-04-25T06:12:47;10.00;99.90
2391;DHT22;22957;50.824;4.360;2023-04-25T06:15:13;10.10;99.90
2391;DHT22;22957;50.824;4.360;2023-04-25T06:17:39;10.30;99.90
2391;DHT22;22957;50.824;4.360;2023-04-25T06:20:05;10.10;99.90
2391;DHT22;22957;50.824;4.360;2023-04-25T06:22:31;11.00;99.90
2391;DHT22;22957;50.824;4.360;2023-04-25T06:24:57;11.10;99.90
2391;DHT22;22957;50.824;4.360;2023-04-25T06:27:24;12.20;99.90
2391;DHT22;22957;50.824;4.360;2023-04-25T06:29:49;11.40;99.90
2391;DHT22;22957;50.824;4.360;2023-04-25T06:32:15;10.90;99.90
2391;DHT22;22957;50.824;4.360;2023-04-25T06:34:41;11.80;99.90
2391;DHT22;22957;50.824;4.360;2023-04-25T06:37:06;12.40;99.90
2391;DHT22;22957;50.824;4.360;2023-04-25T06:39:32;12.10;99.90
2391;DHT22;22957;50.824;4.360;2023-04-25T06:41:57;12.30;99.90
2391;DHT22;22957;50.824;4.360;2023-04-25T06:44:23;11.90;99.90
2391;DHT22;22957;50.824;4.360;2023-04-25T06:46:49;12.50;99.90
2391;DHT22;22957;50.824;4.360;2023-04-25T06:49:15;12.80;99.90
2391;DHT22;22957;50.824;4.360;2023-04-25T06:51:41;13.10;99.90
2391;DHT22;22957;50.824;4.360;2023-04-25T06:54:06;13.50;99.90
2391;DHT22;22957;50.824;4.360;2023-04-25T06:56:32;13.20;99.90
2391;DHT22;22957;50.824;4.360;2023-04-25T06:58:58;13.00;99.90
2391;DHT22;22957;50.824;4.360;2023-04-25T07:01:23;12.00;99.90
2391;DHT22;22957;50.824;4.360;2023-04-25T07:03:50;12.50;99.90
2391;DHT22;22957;50.824;4.360;2023-04-25T07:06:15;12.70;99.90
2391;DHT22;22957;50.824;4.360;2023-04-25T07:08:41;12.60;99.90
2391;DHT22;22957;50.824;4.360;2023-04-25T07:11:06;13.30;99.90
2391;DHT22;22957;50.824;4.360;2023-04-25T07:13:32;13.20;99.90
2391;DHT22;22957;50.824;4.360;2023-04-25T07:15:57;13.10;99.90
2391;DHT22;22957;50.824;4.360;2023-04-25T07:18:24;13.40;99.90
2391;DHT22;22957;50.824;4.360;2023-04-25T07:20:50;12.40;99.90
2391;DHT22;22957;50.824;4.360;2023-04-25T07:23:15;12.10;99.90
2391;DHT22;22957;50.824;4.360;2023-04-25T07:25:41;12.90;99.90
2391;DHT22;22957;50.824;4.360;2023-04-25T07:28:06;13.50;99.90
2391;DHT22;22957;50.824;4.360;2023-04-25T07:30:32;13.70;99.90
2391;DHT22;22957;50.824;4.360;2023-04-25T07:32:59;13.70;99.90
2391;DHT22;22957;50.824;4.360;2023-04-25T07:35:24;13.20;99.90
2391;DHT22;22957;50.824;4.360;2023-04-25T07:37:50;12.40;99.90
2391;DHT22;22957;50.824;4.360;2023-04-25T07:40:16;12.40;99.90
2391;DHT22;22957;50.824;4.360;2023-04-25T07:42:42;12.30;99.90
2391;DHT22;22957;50.824;4.360;2023-04-25T07:45:08;12.80;99.90
2391;DHT22;22957;50.824;4.360;2023-04-25T07:47:34;13.00;99.90
2391;DHT22;22957;50.824;4.360;2023-04-25T07:50:00;13.30;99.90
2391;DHT22;22957;50.824;4.360;2023-04-25T07:52:26;13.70;99.90
2391;DHT22;22957;50.824;4.360;2023-04-25T07:54:51;13.90;99.90
2391;DHT22;22957;50.824;4.360;2023-04-25T07:57:17;14.00;99.90
2391;DHT22;22957;50.824;4.360;2023-04-25T07:59:43;14.00;99.90
2391;DHT22;22957;50.824;4.360;2023-04-25T08:02:09;14.70;99.90
2391;DHT22;22957;50.824;4.360;2023-04-25T08:04:35;14.50;99.90
2391;DHT22;22957;50.824;4.360;2023-04-25T08:07:00;14.80;99.90
2391;DHT22;22957;50.824;4.360;2023-04-25T08:09:26;14.60;99.90
2391;DHT22;22957;50.824;4.360;2023-04-25T08:11:52;14.30;99.90
2391;DHT22;22957;50.824;4.360;2023-04-25T08:14:18;14.70;99.90
2391;DHT22;22957;50.824;4.360;2023-04-25T08:16:43;14.70;99.90
2391;DHT22;22957;50.824;4.360;2023-04-25T08:19:10;15.10;99.90
2391;DHT22;22957;50.824;4.360;2023-04-25T08:21:36;14.90;99.90
2391;DHT22;22957;50.824;4.360;2023-04-25T08:24:02;15.20;99.90
2391;DHT22;22957;50.824;4.360;2023-04-25T08:26:28;15.40;99.90
2391;DHT22;22957;50.824;4.360;2023-04-25T08:28:54;15.50;99.90
2391;DHT22;22957;50.824;4.360;2023-04-25T08:31:19;14.80;99.90
2391;DHT22;22957;50.824;4.360;2023-04-25T08:33:46;15.40;99.90
2391;DHT22;22957;50.824;4.360;2023-04-25T08:36:11;14.30;99.90
2391;DHT22;22957;50.824;4.360;2023-04-25T08:38:37;15.10;99.90
2391;DHT22;22957;50.824;4.360;2023-04-25T08:41:03;15.10;99.90
2391;DHT22;22957;50.824;4.360;2023-04-25T08:43:30;15.30;99.90
2391;DHT22;22957;50.824;4.360;2023-04-25T08:46:00;16.40;99.90
2391;DHT22;22957;50.824;4.360;2023-04-25T08:48:27;17.00;97.80
2391;DHT22;22957;50.824;4.360;2023-04-25T08:50:56;16.20;97.20
2391;DHT22;22957;50.824;4.360;2023-04-25T08:53:27;16.30;97.20
2391;DHT22;22957;50.824;4.360;2023-04-25T08:55:54;16.40;96.70
2391;DHT22;22957;50.824;4.360;2023-04-25T08:58:21;17.20;97.60
2391;DHT22;22957;50.824;4.360;2023-04-25T09:00:47;17.70;94.60
2391;DHT22;22957;50.824;4.360;2023-04-25T09:03:13;19.10;93.80
2391;DHT22;22957;50.824;4.360;2023-04-25T09:05:40;19.70;92.00
2391;DHT22;22957;50.824;4.360;2023-04-25T09:08:07;19.30;92.90
2391;DHT22;22957;50.824;4.360;2023-04-25T09:10:33;19.40;92.40
2391;DHT22;22957;50.824;4.360;2023-04-25T09:13:12;20.00;91.40
2391;DHT22;22957;50.824;4.360;2023-04-25T09:15:56;19.70;89.50
2391;DHT22;22957;50.824;4.360;2023-04-25T09:18:26;19.90;87.90
2391;DHT22;22957;50.824;4.360;2023-04-25T09:21:14;18.50;89.40
2391;DHT22;22957;50.824;4.360;2023-04-25T09:23:41;17.70;89.80
2391;DHT22;22957;50.824;4.360;2023-04-25T09:26:07;16.20;89.50
2391;DHT22;22957;50.824;4.360;2023-04-25T09:28:34;16.30;90.80
2391;DHT22;22957;50.824;4.360;2023-04-25T09:31:01;16.60;91.50
2391;DHT22;22957;50.824;4.360;2023-04-25T09:33:33;16.60;91.00
2391;DHT22;22957;50.824;4.360;2023-04-25T09:36:06;15.90;91.70
2391;DHT22;22957;50.824;4.360;2023-04-25T09:38:54;16.30;92.30
2391;DHT22;22957;50.824;4.360;2023-04-25T09:41:25;16.70;92.80
2391;DHT22;22957;50.824;4.360;2023-04-25T09:43:51;16.90;92.30
2391;DHT22;22957;50.824;4.360;2023-04-25T09:46:16;17.20;92.30
2391;DHT22;22957;50.824;4.360;2023-04-25T09:48:50;17.10;91.40
2391;DHT22;22957;50.824;4.360;2023-04-25T09:51:16;16.20;93.30
2391;DHT22;22957;50.824;4.360;2023-04-25T09:53:44;16.60;93.70
2391;DHT22;22957;50.824;4.360;2023-04-25T09:56:12;17.10;94.10
2391;DHT22;22957;50.824;4.360;2023-04-25T09:58:39;16.80;93.00
2391;DHT22;22957;50.824;4.360;2023-04-25T10:01:16;17.50;93.80
2391;DHT22;22957;50.824;4.360;2023-04-25T10:03:43;18.50;92.30
2391;DHT22;22957;50.824;4.360;2023-04-25T10:06:16;20.00;91.70
2391;DHT22;22957;50.824;4.360;2023-04-25T10:08:43;17.00;90.30
2391;DHT22;22957;50.824;4.360;2023-04-25T10:11:10;16.40;89.90
2391;DHT22;22957;50.824;4.360;2023-04-25T10:13:36;19.10;89.80
2391;DHT22;22957;50.824;4.360;2023-04-25T10:16:03;20.90;84.60
2391;DHT22;22957;50.824;4.360;2023-04-25T10:18:30;21.00;84.00
2391;DHT22;22957;50.824;4.360;2023-04-25T10:21:00;16.80;87.50
2391;DHT22;22957;50.824;4.360;2023-04-25T10:23:26;18.50;86.50
2391;DHT22;22957;50.824;4.360;2023-04-25T10:25:53;18.10;85.40
2391;DHT22;22957;50.824;4.360;2023-04-25T10:28:20;18.80;87.10
2391;DHT22;22957;50.824;4.360;2023-04-25T10:31:07;20.20;80.10
2391;DHT22;22957;50.824;4.360;2023-04-25T10:33:35;20.10;79.70
2391;DHT22;22957;50.824;4.360;2023-04-25T10:36:13;21.20;78.20
2391;DHT22;22957;50.824;4.360;2023-04-25T10:38:42;21.60;74.40
2391;DHT22;22957;50.824;4.360;2023-04-25T10:41:09;20.80;74.00
2391;DHT22;22957;50.824;4.360;2023-04-25T10:43:39;21.80;70.10
2391;DHT22;22957;50.824;4.360;2023-04-25T10:48:50;23.00;70.00
2391;DHT22;22957;50.824;4.360;2023-04-25T10:51:29;21.50;70.00
2391;DHT22;22957;50.824;4.360;2023-04-25T10:54:05;20.30;70.00
2391;DHT22;22957;50.824;4.360;2023-04-25T10:56:33;20.70;71.10
2391;DHT22;22957;50.824;4.360;2023-04-25T10:59:18;20.70;68.90
2391;DHT22;22957;50.824;4.360;2023-04-25T11:01:46;17.80;70.50
2391;DHT22;22957;50.824;4.360;2023-04-25T11:04:32;16.90;78.70
2391;DHT22;22957;50.824;4.360;2023-04-25T11:07:29;15.60;75.70
2391;DHT22;22957;50.824;4.360;2023-04-25T11:09:57;16.50;83.80
2391;DHT22;22957;50.824;4.360;2023-04-25T11:12:26;16.80;86.70
2391;DHT22;22957;50.824;4.360;2023-04-25T11:15:02;16.00;90.20
2391;DHT22;22957;50.824;4.360;2023-04-25T11:17:28;16.00;90.50
2391;DHT22;22957;50.824;4.360;2023-04-25T11:19:54;16.10;90.70
2391;DHT22;22957;50.824;4.360;2023-04-25T11:22:21;14.90;90.00
2391;DHT22;22957;50.824;4.360;2023-04-25T11:24:47;15.20;91.40
2391;DHT22;22957;50.824;4.360;2023-04-25T11:27:13;15.80;88.40
2391;DHT22;22957;50.824;4.360;2023-04-25T11:29:39;14.90;86.10
2391;DHT22;22957;50.824;4.360;2023-04-25T11:32:05;14.40;90.70
2391;DHT22;22957;50.824;4.360;2023-04-25T11:34:32;15.90;88.90
2391;DHT22;22957;50.824;4.360;2023-04-25T11:36:59;15.10;87.30
2391;DHT22;22957;50.824;4.360;2023-04-25T11:39:26;16.20;86.50
2391;DHT22;22957;50.824;4.360;2023-04-25T11:41:52;17.50;84.90
2391;DHT22;22957;50.824;4.360;2023-04-25T11:44:19;16.90;84.50
2391;DHT22;22957;50.824;4.360;2023-04-25T11:46:46;18.40;85.00
2391;DHT22;22957;50.824;4.360;2023-04-25T11:49:12;16.60;81.60
2391;DHT22;22957;50.824;4.360;2023-04-25T11:51:46;15.60;85.90
2391;DHT22;22957;50.824;4.360;2023-04-25T11:54:12;17.20;83.10
2391;DHT22;22957;50.824;4.360;2023-04-25T11:56:44;17.90;82.70
2391;DHT22;22957;50.824;4.360;2023-04-25T11:59:10;17.10;82.00
2391;DHT22;22957;50.824;4.360;2023-04-25T12:01:57;15.30;85.40
2391;DHT22;22957;50.824;4.360;2023-04-25T12:04:24;16.80;87.20
2391;DHT22;22957;50.824;4.360;2023-04-25T12:06:54;17.00;87.80
2391;DHT22;22957;50.824;4.360;2023-04-25T12:09:27;17.40;83.20
2391;DHT22;22957;50.824;4.360;2023-04-25T12:11:54;17.00;81.10
2391;DHT22;22957;50.824;4.360;2023-04-25T12:14:25;17.10;80.40
2391;DHT22;22957;50.824;4.360;2023-04-25T12:16:52;19.10;77.10
2391;DHT22;22957;50.824;4.360;2023-04-25T12:19:20;19.30;76.30
2391;DHT22;22957;50.824;4.360;2023-04-25T12:21:47;17.70;80.40
2391;DHT22;22957;50.824;4.360;2023-04-25T12:24:15;16.90;78.50
2391;DHT22;22957;50.824;4.360;2023-04-25T12:26:58;14.30;85.10
2391;DHT22;22957;50.824;4.360;2023-04-25T12:29:26;17.40;84.40
2391;DHT22;22957;50.824;4.360;2023-04-25T12:31:53;17.00;83.80
2391;DHT22;22957;50.824;4.360;2023-04-25T12:34:20;17.30;83.50
2391;DHT22;22957;50.824;4.360;2023-04-25T12:36:46;18.40;79.40
2391;DHT22;22957;50.824;4.360;2023-04-25T12:41:41;15.50;78.70
2391;DHT22;22957;50.824;4.360;2023-04-25T12:44:07;16.10;81.30
2391;DHT22;22957;50.824;4.360;2023-04-25T12:46:32;17.10;78.10
2391;DHT22;22957;50.824;4.360;2023-04-25T12:48:58;17.00;77.30
2391;DHT22;22957;50.824;4.360;2023-04-25T12:51:24;17.50;76.30
2391;DHT22;22957;50.824;4.360;2023-04-25T12:53:51;18.00;74.30
2391;DHT22;22957;50.824;4.360;2023-04-25T12:56:17;17.50;76.10
2391;DHT22;22957;50.824;4.360;2023-04-25T12:58:43;18.10;78.10
2391;DHT22;22957;50.824;4.360;2023-04-25T13:01:09;19.20;77.00
2391;DHT22;22957;50.824;4.360;2023-04-25T13:03:35;19.20;78.20
2391;DHT22;22957;50.824;4.360;2023-04-25T13:06:01;19.50;77.30
2391;DHT22;22957;50.824;4.360;2023-04-25T13:08:26;17.10;72.70
2391;DHT22;22957;50.824;4.360;2023-04-25T13:10:52;17.00;78.20
2391;DHT22;22957;50.824;4.360;2023-04-25T13:13:17;14.40;80.50
2391;DHT22;22957;50.824;4.360;2023-04-25T13:15:43;16.20;83.10
2391;DHT22;22957;50.824;4.360;2023-04-25T13:18:09;16.50;81.80
2391;DHT22;22957;50.824;4.360;2023-04-25T13:20:34;15.90;82.00
2391;DHT22;22957;50.824;4.360;2023-04-25T13:23:00;14.10;85.10
2391;DHT22;22957;50.824;4.360;2023-04-25T13:25:26;16.20;83.00
2391;DHT22;22957;50.824;4.360;2023-04-25T13:27:51;15.40;79.20
2391;DHT22;22957;50.824;4.360;2023-04-25T13:30:17;13.70;78.70
2391;DHT22;22957;50.824;4.360;2023-04-25T13:32:43;14.50;82.40
2391;DHT22;22957;50.824;4.360;2023-04-25T13:35:10;12.80;85.00
2391;DHT22;22957;50.824;4.360;2023-04-25T13:37:37;13.00;82.30
2391;DHT22;22957;50.824;4.360;2023-04-25T13:40:07;13.50;85.60
2391;DHT22;22957;50.824;4.360;2023-04-25T13:42:34;15.60;80.40
2391;DHT22;22957;50.824;4.360;2023-04-25T13:45:00;16.50;78.80
2391;DHT22;22957;50.824;4.360;2023-04-25T13:47:26;17.50;74.00
2391;DHT22;22957;50.824;4.360;2023-04-25T13:49:52;17.00;75.20
2391;DHT22;22957;50.824;4.360;2023-04-25T13:52:18;18.40;74.80
2391;DHT22;22957;50.824;4.360;2023-04-25T13:54:43;17.50;74.00
2391;DHT22;22957;50.824;4.360;2023-04-25T13:57:09;18.70;73.90
2391;DHT22;22957;50.824;4.360;2023-04-25T13:59:36;18.10;73.70
2391;DHT22;22957;50.824;4.360;2023-04-25T14:02:02;19.10;74.20
2391;DHT22;22957;50.824;4.360;2023-04-25T14:04:28;18.70;77.90
2391;DHT22;22957;50.824;4.360;2023-04-25T14:06:54;18.20;77.20
2391;DHT22;22957;50.824;4.360;2023-04-25T14:09:20;15.40;80.30
2391;DHT22;22957;50.824;4.360;2023-04-25T14:11:51;14.70;85.40
2391;DHT22;22957;50.824;4.360;2023-04-25T14:14:17;16.80;81.20
2391;DHT22;22957;50.824;4.360;2023-04-25T14:16:43;14.90;81.40
2391;DHT22;22957;50.824;4.360;2023-04-25T14:19:08;16.20;81.30
2391;DHT22;22957;50.824;4.360;2023-04-25T14:21:34;15.80;79.00
2391;DHT22;22957;50.824;4.360;2023-04-25T14:24:00;15.50;79.90
2391;DHT22;22957;50.824;4.360;2023-04-25T14:26:26;16.70;80.00
2391;DHT22;22957;50.824;4.360;2023-04-25T14:28:52;17.30;76.40
2391;DHT22;22957;50.824;4.360;2023-04-25T14:31:18;15.80;77.90
2391;DHT22;22957;50.824;4.360;2023-04-25T14:33:43;16.00;77.60
2391;DHT22;22957;50.824;4.360;2023-04-25T14:36:09;15.70;78.80
2391;DHT22;22957;50.824;4.360;2023-04-25T14:38:35;15.50;79.60
2391;DHT22;22957;50.824;4.360;2023-04-25T14:41:01;16.20;78.10
2391;DHT22;22957;50.824;4.360;2023-04-25T14:43:26;17.10;75.20
2391;DHT22;22957;50.824;4.360;2023-04-25T14:45:53;16.80;75.90
2391;DHT22;22957;50.824;4.360;2023-04-25T14:48:18;17.20;75.80
2391;DHT22;22957;50.824;4.360;2023-04-25T14:50:45;16.90;75.60
2391;DHT22;22957;50.824;4.360;2023-04-25T14:53:11;17.80;74.40
2391;DHT22;22957;50.824;4.360;2023-04-25T14:55:37;17.30;74.60
2391;DHT22;22957;50.824;4.360;2023-04-25T14:58:03;17.30;76.70
2391;DHT22;22957;50.824;4.360;2023-04-25T15:00:29;17.10;77.50
2391;DHT22;22957;50.824;4.360;2023-04-25T15:02:56;16.60;78.70
2391;DHT22;22957;50.824;4.360;2023-04-25T15:05:22;17.00;75.50
2391;DHT22;22957;50.824;4.360;2023-04-25T15:07:47;17.10;75.80
2391;DHT22;22957;50.824;4.360;2023-04-25T15:10:13;17.30;77.30
2391;DHT22;22957;50.824;4.360;2023-04-25T15:12:44;16.60;75.60
2391;DHT22;22957;50.824;4.360;2023-04-25T15:15:10;16.60;76.40
2391;DHT22;22957;50.824;4.360;2023-04-25T15:17:43;16.30;75.30
2391;DHT22;22957;50.824;4.360;2023-04-25T15:20:10;16.50;78.10
2391;DHT22;22957;50.824;4.360;2023-04-25T15:22:37;16.10;77.50
2391;DHT22;22957;50.824;4.360;2023-04-25T15:25:03;15.70;77.80
2391;DHT22;22957;50.824;4.360;2023-04-25T15:27:29;15.60;80.00
2391;DHT22;22957;50.824;4.360;2023-04-25T15:29:56;16.70;78.30
2391;DHT22;22957;50.824;4.360;2023-04-25T15:32:21;17.30;76.10
2391;DHT22;22957;50.824;4.360;2023-04-25T15:34:48;16.70;76.00
2391;DHT22;22957;50.824;4.360;2023-04-25T15:37:14;17.10;76.20
2391;DHT22;22957;50.824;4.360;2023-04-25T15:39:39;17.30;75.60
2391;DHT22;22957;50.824;4.360;2023-04-25T15:42:05;16.30;76.30
2391;DHT22;22957;50.824;4.360;2023-04-25T15:44:31;16.30;77.30
2391;DHT22;22957;50.824;4.360;2023-04-25T15:46:56;15.20;77.40
2391;DHT22;22957;50.824;4.360;2023-04-25T15:49:22;14.50;76.20
2391;DHT22;22957;50.824;4.360;2023-04-25T15:51:48;15.70;76.10